sensor_id;sensor_type;location;lat;lon;timestamp;P1;durP1;ratioP1;P2;durP2;ratioP2
43837;SDS011;65998;46.256;7.534;2022-12-18T11:34:59;7.37;;;2.03;;
43837;SDS011;65998;46.256;7.534;2022-12-18T11:58:28;6.70;;;2.25;;
43837;SDS011;65998;46.256;7.534;2022-12-18T12:23:46;9.30;;;2.90;;
43837;SDS011;65998;46.256;7.534;2022-12-18T12:39:52;7.75;;;2.47;;
43837;SDS011;65998;46.256;7.534;2022-12-18T12:42:59;10.57;;;1.90;;
43837;SDS011;65998;46.256;7.534;2022-12-18T12:46:11;7.18;;;2.40;;
43837;SDS011;65998;46.256;7.534;2022-12-18T12:49:02;7.00;;;2.45;;
43837;SDS011;65998;46.256;7.534;2022-12-18T12:51:47;8.43;;;3.17;;
43837;SDS011;65998;46.256;7.534;2022-12-18T12:55:19;12.23;;;4.25;;
43837;SDS011;65998;46.256;7.534;2022-12-18T13:16:04;12.95;;;3.05;;
43837;SDS011;65998;46.256;7.534;2022-12-18T13:18:35;10.50;;;2.85;;
43837;SDS011;65998;46.256;7.534;2022-12-18T13:21:12;4.53;;;1.60;;
43837;SDS011;65998;46.256;7.534;2022-12-18T13:24:14;10.18;;;2.50;;
43837;SDS011;65998;46.256;7.534;2022-12-18T13:26:46;5.63;;;1.67;;
43837;SDS011;65998;46.256;7.534;2022-12-18T13:29:13;4.57;;;1.45;;
43837;SDS011;65998;46.256;7.534;2022-12-18T13:32:29;3.90;;;1.10;;
43837;SDS011;65998;46.256;7.534;2022-12-18T13:35:37;4.33;;;1.80;;
43837;SDS011;65998;46.256;7.534;2022-12-18T13:37:59;5.10;;;1.50;;
43837;SDS011;65998;46.256;7.534;2022-12-18T13:43:19;11.70;;;4.05;;
43837;SDS011;65998;46.256;7.534;2022-12-18T13:45:48;7.00;;;2.55;;
43837;SDS011;65998;46.256;7.534;2022-12-18T13:48:19;7.47;;;2.47;;
43837;SDS011;65998;46.256;7.534;2022-12-18T13:54:00;8.07;;;1.85;;
43837;SDS011;65998;46.256;7.534;2022-12-18T13:56:48;6.90;;;2.00;;
43837;SDS011;65998;46.256;7.534;2022-12-18T13:59:36;5.30;;;1.10;;
43837;SDS011;65998;46.256;7.534;2022-12-18T14:02:17;3.83;;;1.53;;
43837;SDS011;65998;46.256;7.534;2022-12-18T14:04:53;3.65;;;1.05;;
43837;SDS011;65998;46.256;7.534;2022-12-18T14:07:23;6.72;;;1.20;;
43837;SDS011;65998;46.256;7.534;2022-12-18T14:10:03;5.88;;;1.33;;
43837;SDS011;65998;46.256;7.534;2022-12-18T14:12:36;4.78;;;1.55;;
43837;SDS011;65998;46.256;7.534;2022-12-18T14:15:39;3.37;;;0.80;;
43837;SDS011;65998;46.256;7.534;2022-12-18T14:21:27;3.22;;;0.60;;
43837;SDS011;65998;46.256;7.534;2022-12-18T14:24:24;4.45;;;0.73;;
43837;SDS011;65998;46.256;7.534;2022-12-18T14:27:29;3.15;;;0.70;;
43837;SDS011;65998;46.256;7.534;2022-12-18T14:30:38;3.10;;;0.87;;
43837;SDS011;65998;46.256;7.534;2022-12-18T14:33:46;3.42;;;0.77;;
43837;SDS011;65998;46.256;7.534;2022-12-18T14:36:25;14.35;;;4.68;;
43837;SDS011;65998;46.256;7.534;2022-12-18T14:39:13;12.75;;;5.07;;
43837;SDS011;65998;46.256;7.534;2022-12-18T14:42:09;14.52;;;5.15;;
43837;SDS011;65998;46.256;7.534;2022-12-18T14:48:24;5.50;;;1.65;;
43837;SDS011;65998;46.256;7.534;2022-12-18T14:51:23;6.35;;;1.80;;
43837;SDS011;65998;46.256;7.534;2022-12-18T14:54:40;6.93;;;1.90;;
43837;SDS011;65998;46.256;7.534;2022-12-18T14:57:36;6.75;;;1.65;;
43837;SDS011;65998;46.256;7.534;2022-12-18T15:03:31;7.18;;;1.98;;
43837;SDS011;65998;46.256;7.534;2022-12-18T15:07:02;5.57;;;1.95;;
43837;SDS011;65998;46.256;7.534;2022-12-18T15:10:03;6.88;;;1.83;;
43837;SDS011;65998;46.256;7.534;2022-12-18T15:17:45;8.43;;;2.77;;
43837;SDS011;65998;46.256;7.534;2022-12-18T15:21:14;4.63;;;1.30;;
43837;SDS011;65998;46.256;7.534;2022-12-18T15:25:22;3.80;;;1.08;;
43837;SDS011;65998;46.256;7.534;2022-12-18T15:28:40;6.80;;;2.05;;
43837;SDS011;65998;46.256;7.534;2022-12-18T15:37:53;3.43;;;0.90;;
43837;SDS011;65998;46.256;7.534;2022-12-18T15:41:16;3.58;;;1.17;;
43837;SDS011;65998;46.256;7.534;2022-12-18T15:50:09;5.35;;;1.35;;
43837;SDS011;65998;46.256;7.534;2022-12-18T15:52:59;4.90;;;1.33;;
43837;SDS011;65998;46.256;7.534;2022-12-18T15:56:00;2.67;;;0.75;;
43837;SDS011;65998;46.256;7.534;2022-12-18T15:58:54;3.28;;;0.80;;
43837;SDS011;65998;46.256;7.534;2022-12-18T16:01:25;4.88;;;1.45;;
43837;SDS011;65998;46.256;7.534;2022-12-18T16:03:58;3.33;;;1.00;;
43837;SDS011;65998;46.256;7.534;2022-12-18T16:06:24;2.23;;;0.57;;
43837;SDS011;65998;46.256;7.534;2022-12-18T16:08:52;5.57;;;1.60;;
43837;SDS011;65998;46.256;7.534;2022-12-18T16:14:44;12.68;;;4.25;;
43837;SDS011;65998;46.256;7.534;2022-12-18T16:17:20;6.07;;;1.30;;
43837;SDS011;65998;46.256;7.534;2022-12-18T16:20:11;13.23;;;2.93;;
43837;SDS011;65998;46.256;7.534;2022-12-18T16:23:01;12.48;;;3.25;;
43837;SDS011;65998;46.256;7.534;2022-12-18T16:25:30;6.32;;;1.80;;
43837;SDS011;65998;46.256;7.534;2022-12-18T16:27:57;7.55;;;1.75;;
43837;SDS011;65998;46.256;7.534;2022-12-18T16:30:24;7.53;;;2.63;;
43837;SDS011;65998;46.256;7.534;2022-12-18T16:35:53;10.65;;;4.32;;
43837;SDS011;65998;46.256;7.534;2022-12-18T16:41:55;5.32;;;1.30;;
43837;SDS011;65998;46.256;7.534;2022-12-18T16:44:22;6.07;;;1.40;;
43837;SDS011;65998;46.256;7.534;2022-12-18T16:46:48;5.40;;;1.40;;
43837;SDS011;65998;46.256;7.534;2022-12-18T16:49:38;6.18;;;1.80;;
43837;SDS011;65998;46.256;7.534;2022-12-18T16:52:30;4.03;;;1.08;;
43837;SDS011;65998;46.256;7.534;2022-12-18T16:55:32;4.53;;;0.98;;
43837;SDS011;65998;46.256;7.534;2022-12-18T16:58:08;4.80;;;0.57;;
43837;SDS011;65998;46.256;7.534;2022-12-18T17:00:40;3.27;;;0.63;;
43837;SDS011;65998;46.256;7.534;2022-12-18T17:03:10;4.35;;;0.75;;
43837;SDS011;65998;46.256;7.534;2022-12-18T17:06:16;2.20;;;0.75;;
43837;SDS011;65998;46.256;7.534;2022-12-18T17:08:43;4.03;;;1.15;;
43837;SDS011;65998;46.256;7.534;2022-12-18T17:11:09;5.80;;;1.27;;
43837;SDS011;65998;46.256;7.534;2022-12-18T17:17:21;3.25;;;0.73;;
43837;SDS011;65998;46.256;7.534;2022-12-18T17:20:00;15.43;;;3.38;;
43837;SDS011;65998;46.256;7.534;2022-12-18T17:22:27;10.18;;;3.03;;
43837;SDS011;65998;46.256;7.534;2022-12-18T17:24:56;13.50;;;2.53;;
43837;SDS011;65998;46.256;7.534;2022-12-18T17:27:22;7.63;;;1.98;;
43837;SDS011;65998;46.256;7.534;2022-12-18T17:29:48;4.65;;;1.10;;
43837;SDS011;65998;46.256;7.534;2022-12-18T17:32:15;3.35;;;1.20;;
43837;SDS011;65998;46.256;7.534;2022-12-18T17:34:42;3.03;;;0.73;;
43837;SDS011;65998;46.256;7.534;2022-12-18T17:37:08;11.20;;;3.07;;
43837;SDS011;65998;46.256;7.534;2022-12-18T17:39:34;8.35;;;2.42;;
43837;SDS011;65998;46.256;7.534;2022-12-18T17:42:00;10.02;;;3.25;;
43837;SDS011;65998;46.256;7.534;2022-12-18T17:44:26;8.65;;;2.13;;
43837;SDS011;65998;46.256;7.534;2022-12-18T17:46:54;4.67;;;1.70;;
43837;SDS011;65998;46.256;7.534;2022-12-18T17:49:20;3.53;;;1.15;;
43837;SDS011;65998;46.256;7.534;2022-12-18T17:51:46;5.55;;;1.15;;
43837;SDS011;65998;46.256;7.534;2022-12-18T17:54:13;4.03;;;0.90;;
43837;SDS011;65998;46.256;7.534;2022-12-18T17:56:39;3.80;;;0.90;;
43837;SDS011;65998;46.256;7.534;2022-12-18T17:59:05;3.08;;;1.10;;
43837;SDS011;65998;46.256;7.534;2022-12-18T18:01:31;3.75;;;1.00;;
43837;SDS011;65998;46.256;7.534;2022-12-18T18:03:57;3.20;;;0.90;;
43837;SDS011;65998;46.256;7.534;2022-12-18T18:06:25;3.25;;;0.90;;
43837;SDS011;65998;46.256;7.534;2022-12-18T18:08:52;5.73;;;1.23;;
43837;SDS011;65998;46.256;7.534;2022-12-18T18:11:19;4.30;;;1.25;;
43837;SDS011;65998;46.256;7.534;2022-12-18T18:14:09;9.50;;;1.92;;
43837;SDS011;65998;46.256;7.534;2022-12-18T18:16:40;7.50;;;1.70;;
43837;SDS011;65998;46.256;7.534;2022-12-18T18:19:15;8.45;;;2.42;;
43837;SDS011;65998;46.256;7.534;2022-12-18T18:21:43;11.07;;;3.87;;
43837;SDS011;65998;46.256;7.534;2022-12-18T18:24:12;7.47;;;2.05;;
43837;SDS011;65998;46.256;7.534;2022-12-18T18:26:39;6.80;;;2.13;;
43837;SDS011;65998;46.256;7.534;2022-12-18T18:29:13;7.88;;;2.78;;
43837;SDS011;65998;46.256;7.534;2022-12-18T18:31:43;6.40;;;1.70;;
43837;SDS011;65998;46.256;7.534;2022-12-18T18:34:16;4.93;;;1.17;;
43837;SDS011;65998;46.256;7.534;2022-12-18T18:36:44;2.88;;;0.70;;
43837;SDS011;65998;46.256;7.534;2022-12-18T18:39:11;3.15;;;1.00;;
43837;SDS011;65998;46.256;7.534;2022-12-18T18:41:38;4.03;;;1.20;;
43837;SDS011;65998;46.256;7.534;2022-12-18T18:44:04;4.75;;;0.90;;
43837;SDS011;65998;46.256;7.534;2022-12-18T18:46:30;2.73;;;0.73;;
43837;SDS011;65998;46.256;7.534;2022-12-18T18:48:56;3.17;;;0.65;;
43837;SDS011;65998;46.256;7.534;2022-12-18T18:51:22;2.70;;;0.70;;
43837;SDS011;65998;46.256;7.534;2022-12-18T18:53:50;4.37;;;0.90;;
43837;SDS011;65998;46.256;7.534;2022-12-18T18:56:18;3.35;;;1.20;;
43837;SDS011;65998;46.256;7.534;2022-12-18T18:58:47;13.70;;;1.17;;
43837;SDS011;65998;46.256;7.534;2022-12-18T19:01:14;4.75;;;0.90;;
43837;SDS011;65998;46.256;7.534;2022-12-18T19:03:45;7.57;;;1.20;;
43837;SDS011;65998;46.256;7.534;2022-12-18T19:06:12;5.30;;;1.15;;
43837;SDS011;65998;46.256;7.534;2022-12-18T19:08:43;5.03;;;0.52;;
43837;SDS011;65998;46.256;7.534;2022-12-18T19:11:11;3.55;;;0.55;;
43837;SDS011;65998;46.256;7.534;2022-12-18T19:13:57;2.55;;;0.57;;
43837;SDS011;65998;46.256;7.534;2022-12-18T19:16:24;4.67;;;0.80;;
43837;SDS011;65998;46.256;7.534;2022-12-18T19:18:52;3.15;;;0.75;;
43837;SDS011;65998;46.256;7.534;2022-12-18T19:21:19;2.33;;;0.70;;
43837;SDS011;65998;46.256;7.534;2022-12-18T19:23:46;6.68;;;0.98;;
43837;SDS011;65998;46.256;7.534;2022-12-18T19:26:13;2.45;;;0.82;;
43837;SDS011;65998;46.256;7.534;2022-12-18T19:28:40;3.70;;;0.70;;
43837;SDS011;65998;46.256;7.534;2022-12-18T19:31:07;3.42;;;0.63;;
43837;SDS011;65998;46.256;7.534;2022-12-18T19:33:37;1.60;;;0.45;;
43837;SDS011;65998;46.256;7.534;2022-12-18T19:36:13;3.75;;;0.47;;
43837;SDS011;65998;46.256;7.534;2022-12-18T19:38:43;2.95;;;0.40;;
43837;SDS011;65998;46.256;7.534;2022-12-18T19:41:09;2.47;;;0.50;;
43837;SDS011;65998;46.256;7.534;2022-12-18T19:43:36;4.13;;;1.05;;
43837;SDS011;65998;46.256;7.534;2022-12-18T19:46:03;3.30;;;0.60;;
43837;SDS011;65998;46.256;7.534;2022-12-18T19:48:31;7.07;;;0.77;;
43837;SDS011;65998;46.256;7.534;2022-12-18T19:50:57;3.03;;;0.90;;
43837;SDS011;65998;46.256;7.534;2022-12-18T19:53:23;7.70;;;1.03;;
43837;SDS011;65998;46.256;7.534;2022-12-18T19:55:49;6.53;;;1.85;;
43837;SDS011;65998;46.256;7.534;2022-12-18T19:58:15;7.88;;;2.55;;
43837;SDS011;65998;46.256;7.534;2022-12-18T20:00:41;4.87;;;1.80;;
43837;SDS011;65998;46.256;7.534;2022-12-18T20:03:07;4.55;;;1.20;;
43837;SDS011;65998;46.256;7.534;2022-12-18T20:05:33;8.02;;;1.50;;
43837;SDS011;65998;46.256;7.534;2022-12-18T20:07:59;4.22;;;1.52;;
43837;SDS011;65998;46.256;7.534;2022-12-18T20:10:25;3.83;;;0.87;;
43837;SDS011;65998;46.256;7.534;2022-12-18T20:12:51;3.40;;;0.70;;
43837;SDS011;65998;46.256;7.534;2022-12-18T20:15:17;3.97;;;1.10;;
43837;SDS011;65998;46.256;7.534;2022-12-18T20:17:43;3.00;;;0.70;;
43837;SDS011;65998;46.256;7.534;2022-12-18T20:20:09;3.72;;;0.70;;
43837;SDS011;65998;46.256;7.534;2022-12-18T20:22:36;3.33;;;0.60;;
43837;SDS011;65998;46.256;7.534;2022-12-18T20:25:01;2.50;;;0.70;;
43837;SDS011;65998;46.256;7.534;2022-12-18T20:27:28;5.80;;;1.80;;
43837;SDS011;65998;46.256;7.534;2022-12-18T20:29:54;6.28;;;1.95;;
43837;SDS011;65998;46.256;7.534;2022-12-18T20:32:20;4.07;;;1.23;;
43837;SDS011;65998;46.256;7.534;2022-12-18T20:34:46;4.10;;;1.20;;
43837;SDS011;65998;46.256;7.534;2022-12-18T20:37:12;5.50;;;1.80;;
43837;SDS011;65998;46.256;7.534;2022-12-18T20:39:38;6.10;;;2.05;;
43837;SDS011;65998;46.256;7.534;2022-12-18T20:42:04;3.00;;;0.73;;
43837;SDS011;65998;46.256;7.534;2022-12-18T20:44:30;2.80;;;0.63;;
43837;SDS011;65998;46.256;7.534;2022-12-18T20:46:57;2.85;;;0.60;;
43837;SDS011;65998;46.256;7.534;2022-12-18T20:49:25;2.70;;;0.65;;
43837;SDS011;65998;46.256;7.534;2022-12-18T20:51:53;2.13;;;0.40;;
43837;SDS011;65998;46.256;7.534;2022-12-18T20:54:21;4.27;;;0.83;;
43837;SDS011;65998;46.256;7.534;2022-12-18T20:56:48;2.70;;;0.73;;
43837;SDS011;65998;46.256;7.534;2022-12-18T20:59:15;7.30;;;1.73;;
43837;SDS011;65998;46.256;7.534;2022-12-18T21:01:42;2.78;;;0.63;;
43837;SDS011;65998;46.256;7.534;2022-12-18T21:04:08;2.83;;;0.77;;
43837;SDS011;65998;46.256;7.534;2022-12-18T21:06:34;2.67;;;0.60;;
43837;SDS011;65998;46.256;7.534;2022-12-18T21:09:01;3.85;;;0.70;;
43837;SDS011;65998;46.256;7.534;2022-12-18T21:11:29;4.97;;;2.28;;
43837;SDS011;65998;46.256;7.534;2022-12-18T21:16:49;4.50;;;0.80;;
43837;SDS011;65998;46.256;7.534;2022-12-18T21:19:17;2.92;;;0.75;;
43837;SDS011;65998;46.256;7.534;2022-12-18T21:21:44;3.47;;;0.63;;
43837;SDS011;65998;46.256;7.534;2022-12-18T21:24:11;7.75;;;0.73;;
43837;SDS011;65998;46.256;7.534;2022-12-18T21:26:38;2.85;;;0.65;;
43837;SDS011;65998;46.256;7.534;2022-12-18T21:29:04;3.37;;;1.00;;
43837;SDS011;65998;46.256;7.534;2022-12-18T21:31:33;4.55;;;1.08;;
43837;SDS011;65998;46.256;7.534;2022-12-18T21:34:01;2.45;;;0.70;;
43837;SDS011;65998;46.256;7.534;2022-12-18T21:36:29;2.30;;;0.60;;
43837;SDS011;65998;46.256;7.534;2022-12-18T21:38:56;1.83;;;0.40;;
43837;SDS011;65998;46.256;7.534;2022-12-18T21:41:23;1.97;;;0.40;;
43837;SDS011;65998;46.256;7.534;2022-12-18T21:44:12;3.63;;;0.50;;
43837;SDS011;65998;46.256;7.534;2022-12-18T21:46:41;2.30;;;0.38;;
43837;SDS011;65998;46.256;7.534;2022-12-18T21:49:09;2.20;;;0.60;;
43837;SDS011;65998;46.256;7.534;2022-12-18T21:51:36;2.05;;;0.40;;
43837;SDS011;65998;46.256;7.534;2022-12-18T21:54:03;1.47;;;0.23;;
43837;SDS011;65998;46.256;7.534;2022-12-18T21:59:15;1.45;;;0.40;;
43837;SDS011;65998;46.256;7.534;2022-12-18T22:01:43;2.53;;;0.40;;
43837;SDS011;65998;46.256;7.534;2022-12-18T22:04:09;1.73;;;0.30;;
43837;SDS011;65998;46.256;7.534;2022-12-18T22:06:36;6.87;;;0.57;;
43837;SDS011;65998;46.256;7.534;2022-12-18T22:09:02;5.47;;;1.02;;
43837;SDS011;65998;46.256;7.534;2022-12-18T22:11:29;4.25;;;0.93;;
43837;SDS011;65998;46.256;7.534;2022-12-18T22:13:55;2.87;;;0.70;;
43837;SDS011;65998;46.256;7.534;2022-12-18T22:16:21;1.90;;;0.40;;
43837;SDS011;65998;46.256;7.534;2022-12-18T22:18:47;2.20;;;0.43;;
43837;SDS011;65998;46.256;7.534;2022-12-18T22:23:53;2.20;;;0.60;;
43837;SDS011;65998;46.256;7.534;2022-12-18T22:26:27;3.03;;;0.50;;
43837;SDS011;65998;46.256;7.534;2022-12-18T22:28:54;4.20;;;0.68;;
43837;SDS011;65998;46.256;7.534;2022-12-18T22:31:39;5.13;;;0.77;;
43837;SDS011;65998;46.256;7.534;2022-12-18T22:34:05;3.97;;;0.85;;
43837;SDS011;65998;46.256;7.534;2022-12-18T22:36:36;2.95;;;0.60;;
43837;SDS011;65998;46.256;7.534;2022-12-18T22:39:08;2.90;;;0.50;;
43837;SDS011;65998;46.256;7.534;2022-12-18T22:41:36;2.55;;;0.63;;
43837;SDS011;65998;46.256;7.534;2022-12-18T22:44:02;5.13;;;1.27;;
43837;SDS011;65998;46.256;7.534;2022-12-18T22:46:29;3.83;;;0.87;;
43837;SDS011;65998;46.256;7.534;2022-12-18T22:48:58;2.67;;;0.70;;
43837;SDS011;65998;46.256;7.534;2022-12-18T22:51:24;3.67;;;0.60;;
43837;SDS011;65998;46.256;7.534;2022-12-18T22:53:50;3.13;;;0.52;;
43837;SDS011;65998;46.256;7.534;2022-12-18T22:56:16;1.60;;;0.30;;
43837;SDS011;65998;46.256;7.534;2022-12-18T22:58:42;3.28;;;0.70;;
43837;SDS011;65998;46.256;7.534;2022-12-18T23:01:17;3.88;;;0.88;;
43837;SDS011;65998;46.256;7.534;2022-12-18T23:03:47;4.18;;;0.80;;
43837;SDS011;65998;46.256;7.534;2022-12-18T23:06:14;2.57;;;0.60;;
43837;SDS011;65998;46.256;7.534;2022-12-18T23:08:41;2.78;;;0.68;;
43837;SDS011;65998;46.256;7.534;2022-12-18T23:11:08;2.55;;;0.60;;
43837;SDS011;65998;46.256;7.534;2022-12-18T23:13:35;2.83;;;0.60;;
43837;SDS011;65998;46.256;7.534;2022-12-18T23:16:09;3.08;;;0.50;;
43837;SDS011;65998;46.256;7.534;2022-12-18T23:18:37;2.87;;;0.67;;
43837;SDS011;65998;46.256;7.534;2022-12-18T23:21:04;3.92;;;1.35;;
43837;SDS011;65998;46.256;7.534;2022-12-18T23:23:32;6.25;;;1.63;;
43837;SDS011;65998;46.256;7.534;2022-12-18T23:26:00;3.40;;;0.90;;
43837;SDS011;65998;46.256;7.534;2022-12-18T23:28:32;4.53;;;1.08;;
43837;SDS011;65998;46.256;7.534;2022-12-18T23:31:06;3.60;;;0.97;;
43837;SDS011;65998;46.256;7.534;2022-12-18T23:33:40;2.70;;;0.60;;
43837;SDS011;65998;46.256;7.534;2022-12-18T23:36:06;4.20;;;1.00;;
43837;SDS011;65998;46.256;7.534;2022-12-18T23:38:33;3.42;;;0.77;;
43837;SDS011;65998;46.256;7.534;2022-12-18T23:41:04;3.55;;;0.90;;
43837;SDS011;65998;46.256;7.534;2022-12-18T23:43:34;2.33;;;0.50;;
43837;SDS011;65998;46.256;7.534;2022-12-18T23:46:01;1.73;;;0.35;;
43837;SDS011;65998;46.256;7.534;2022-12-18T23:48:27;2.80;;;0.70;;
43837;SDS011;65998;46.256;7.534;2022-12-18T23:50:53;2.58;;;0.75;;
43837;SDS011;65998;46.256;7.534;2022-12-18T23:53:19;2.20;;;0.60;;
43837;SDS011;65998;46.256;7.534;2022-12-18T23:55:45;3.38;;;0.60;;
43837;SDS011;65998;46.256;7.534;2022-12-18T23:58:15;2.47;;;0.57;;
